Airfield :
LOGIN :

Register | Disclaimer

   EN    FR    IT 

 










Legend :    VFR   Marginal VFR   IFR   Intensive IFR   Very Intensive IFR
Visi :
Ceiling :
>= 8 km
>= 3000ft
5 to 8 km
1000 to 3000 ft
1500m to 5 km
500 to 1000 ft
800 to 1500m
200 to 500 ft
< 800m
< 200 ft
Symbols :   Thunderstorms  Fog  Heavy snow  Heavy precipitations  Wind > 20 kt
SIGMETs :     Misc.  Thunderstorms  Icing  Turbulence  Mountain Waves  Volcanic Ashes






- Airport Elevation : 26 ft
- IATA code : GLA


EGPF - Glasgow

CURRENT METAR :
  • 212250Z AUTO 27014KT 9999 FEW033 03/00 Q0980

EXPIRED METARs :
  • 212220Z AUTO 26014KT 9999 FEW037 03/00 Q0980
  • 212150Z AUTO 26010KT 9999 SCT032 03/M01 Q0980
  • 212120Z AUTO 27009KT 9999 NCD 03/M01 Q0979
  • 212050Z AUTO 27010KT 9999 NCD 03/M00 Q0979
  • 212020Z AUTO 28015KT 9999 NCD 04/00 Q0979

TAF TAF EGPF
Valid from the 21 at 18:00 until the 22 at 18:00 UTC


211658Z 2118/2218 27012KT 9999 SCT020
PROB30
TEMPO 2118/2218 3000 SHSNRA BKN010
PROB30
TEMPO 2118/2206 29015G28KT
ATIS : +44 141 887 7449



MET'MAP, your aeronautical weather chart ! - Copyright ORBIFLY December 2007 - Disclaimer

ORBIFLY MET'MAP TEAM :

Programming & Development : Alexandra Zaïnal
Concept & original design : Baudouin d'Aumeries
Assistance for programming : Marc-Olivier Méhu
Technical & hardware support : Manuel Goepfert

Contact : metmap@orbifly.com




SOURCES & CREDITS :

   NOAA